createdAt,value
2023-04-16T00:04:04.464Z,40.17
2023-04-16T00:09:07.749Z,40.83
2023-04-16T00:14:32.768Z,45.63
2023-04-16T00:19:35.775Z,48.33
2023-04-16T00:24:38.724Z,37.72
2023-04-16T00:29:43.049Z,40.70
2023-04-16T00:34:45.942Z,38.00
2023-04-16T00:40:07.428Z,37.10
2023-04-16T00:45:12.939Z,36.07
2023-04-16T00:50:15.988Z,34.80
2023-04-16T00:55:19.110Z,45.57
2023-04-16T01:00:23.473Z,32.00
2023-04-16T01:05:42.569Z,28.58
2023-04-16T01:10:45.508Z,32.00
2023-04-16T01:15:49.672Z,30.23
2023-04-16T01:20:53.976Z,29.13
2023-04-16T01:25:56.850Z,26.73
2023-04-16T01:31:19.580Z,25.98
2023-04-16T01:36:33.405Z,30.95
2023-04-16T01:41:36.315Z,24.23
2023-04-16T01:46:39.343Z,25.55
2023-04-16T01:51:43.540Z,31.85
2023-04-16T01:56:55.661Z,25.83
2023-04-16T02:01:58.912Z,32.10
2023-04-16T02:07:03.275Z,34.73
2023-04-16T02:12:06.399Z,30.85
2023-04-16T02:17:09.315Z,45.53
2023-04-16T02:22:33.860Z,42.10
2023-04-16T02:27:36.752Z,52.42
2023-04-16T02:32:54.709Z,44.63
2023-04-16T02:37:59.869Z,57.78
2023-04-16T02:43:02.952Z,61.78
2023-04-16T02:48:09.629Z,55.58
2023-04-16T02:53:13.768Z,57.75
2023-04-16T02:58:16.517Z,63.60
2023-04-16T03:03:19.764Z,84.03
2023-04-16T03:08:25.158Z,93.70
2023-04-16T03:13:48.330Z,99.43
2023-04-16T03:18:51.181Z,91.20
2023-04-16T03:23:56.108Z,98.72
2023-04-16T03:28:58.994Z,106.43
2023-04-16T03:34:03.652Z,116.13
2023-04-16T03:39:22.486Z,122.78
2023-04-16T03:44:25.361Z,130.88
2023-04-16T03:49:28.391Z,127.30
2023-04-16T03:54:32.719Z,123.53
2023-04-16T03:59:47.604Z,117.75
2023-04-16T04:04:57.735Z,121.25
2023-04-16T04:10:02.329Z,111.88
2023-04-16T04:15:09.169Z,109.95
2023-04-16T04:20:13.406Z,119.60
2023-04-16T04:25:20.723Z,106.40
2023-04-16T04:30:35.797Z,107.93
2023-04-16T04:35:38.811Z,105.07
2023-04-16T04:40:43.204Z,104.50
2023-04-16T04:45:46.304Z,92.70
2023-04-16T04:50:49.363Z,96.25
2023-04-16T04:56:13.093Z,99.75
2023-04-16T05:01:16.909Z,103.57
2023-04-16T05:06:19.799Z,108.40
2023-04-16T05:11:24.066Z,97.33
2023-04-16T05:16:27.006Z,113.13
2023-04-16T05:21:46.868Z,108.40
2023-04-16T05:26:51.316Z,104.55
2023-04-16T05:31:54.380Z,101.15
2023-04-16T05:36:57.419Z,91.00
2023-04-16T05:42:02.652Z,92.40
2023-04-16T05:47:23.484Z,88.75
2023-04-16T05:52:26.370Z,85.30
2023-04-16T05:57:30.731Z,107.63
2023-04-16T06:02:33.791Z,111.90
2023-04-16T06:07:36.861Z,119.47
2023-04-16T06:13:01.002Z,101.00
2023-04-16T06:18:03.943Z,92.28
2023-04-16T06:23:06.806Z,85.70
2023-04-16T06:28:11.031Z,86.32
2023-04-16T06:33:13.946Z,88.57
2023-04-16T06:38:35.714Z,84.80
2023-04-16T06:43:39.879Z,91.53
2023-04-16T06:48:42.791Z,82.93
2023-04-16T06:53:45.848Z,88.75
2023-04-16T06:58:50.866Z,80.53
2023-04-16T07:04:13.169Z,84.07
2023-04-16T07:09:17.259Z,76.55
2023-04-16T07:14:21.403Z,83.50
2023-04-16T07:19:24.184Z,93.20
2023-04-16T07:24:27.082Z,82.07
2023-04-16T07:29:50.322Z,97.57
2023-04-16T07:34:53.261Z,98.90
2023-04-16T07:39:57.642Z,98.67
2023-04-16T07:45:01.916Z,85.57
2023-04-16T07:50:05.845Z,81.70
2023-04-16T07:55:27.213Z,94.72
2023-04-16T08:00:31.544Z,93.07
2023-04-16T08:05:34.554Z,81.50
2023-04-16T08:10:37.346Z,86.90
2023-04-16T08:15:41.490Z,86.55
2023-04-16T08:20:44.409Z,76.75
2023-04-16T08:25:47.184Z,73.13
2023-04-16T08:31:11.964Z,81.10
2023-04-16T08:36:14.804Z,91.65
2023-04-16T08:41:17.792Z,89.78
2023-04-16T08:46:23.984Z,86.30
2023-04-16T08:51:27.396Z,82.53
2023-04-16T08:56:51.128Z,93.83
2023-04-16T09:01:57.843Z,81.82
2023-04-16T09:07:01.208Z,79.95
2023-04-16T09:12:04.357Z,80.03
2023-04-16T09:17:08.614Z,84.18
2023-04-16T09:22:31.815Z,86.70
2023-04-16T09:27:36.957Z,79.78
2023-04-16T09:32:41.243Z,99.37
2023-04-16T09:37:44.075Z,85.45
2023-04-16T09:42:49.100Z,95.22
2023-04-16T09:48:13.659Z,91.50
2023-04-16T09:53:24.848Z,90.70
2023-04-16T09:58:28.556Z,97.47
2023-04-16T10:03:33.720Z,96.43
2023-04-16T10:08:38.884Z,95.40
2023-04-16T10:13:49.198Z,110.23
2023-04-16T10:18:54.617Z,100.80
2023-04-16T10:23:57.450Z,106.80
2023-04-16T10:29:00.300Z,110.40
2023-04-16T10:34:04.874Z,105.63
2023-04-16T10:39:26.354Z,105.83
2023-04-16T10:44:32.686Z,124.05
2023-04-16T10:49:37.070Z,110.43
2023-04-16T10:54:40.409Z,104.93
2023-04-16T10:59:44.242Z,98.68
2023-04-16T11:05:04.139Z,89.07
2023-04-16T11:10:08.099Z,89.32
2023-04-16T11:15:14.510Z,91.25
2023-04-16T11:20:21.289Z,94.55
2023-04-16T11:25:25.218Z,104.50
2023-04-16T11:30:40.092Z,99.10
2023-04-16T11:35:45.933Z,95.85
2023-04-16T11:40:51.560Z,106.35
2023-04-16T11:45:58.367Z,100.38
2023-04-16T11:51:02.659Z,102.83
2023-04-16T11:56:14.519Z,87.85
2023-04-16T12:01:21.472Z,87.72
2023-04-16T12:06:27.691Z,105.55
2023-04-16T12:11:40.756Z,97.73
2023-04-16T12:17:18.910Z,96.10
2023-04-16T12:22:31.365Z,96.18
2023-04-16T12:27:45.544Z,93.30
2023-04-16T12:32:50.914Z,97.88
2023-04-16T12:37:55.258Z,94.30
2023-04-16T12:42:59.285Z,99.28
2023-04-16T12:48:02.355Z,95.82
2023-04-16T12:53:06.680Z,99.27
2023-04-16T12:58:11.818Z,99.78
2023-04-16T13:03:16.146Z,89.80
2023-04-16T13:08:20.484Z,91.93
2023-04-16T13:13:23.456Z,89.70
2023-04-16T13:18:26.814Z,83.03
2023-04-16T13:23:31.400Z,91.88
2023-04-16T13:28:34.307Z,92.77
2023-04-16T13:33:44.294Z,102.35
2023-04-16T13:38:50.549Z,105.25
2023-04-16T13:43:53.364Z,99.43
2023-04-16T13:48:56.360Z,109.57
2023-04-16T13:54:00.585Z,100.50
2023-04-16T13:59:03.574Z,98.90
2023-04-16T14:04:16.179Z,109.10
2023-04-16T14:09:20.494Z,99.43
2023-04-16T14:14:25.857Z,108.03
2023-04-16T14:19:28.720Z,113.80
2023-04-16T14:24:32.981Z,108.85
2023-04-16T14:29:52.289Z,116.22
2023-04-16T14:34:55.135Z,113.82
2023-04-16T14:39:59.391Z,118.35
2023-04-16T14:45:02.175Z,118.93
2023-04-16T14:50:06.253Z,112.47
2023-04-16T14:55:30.021Z,119.53
2023-04-16T15:00:35.122Z,125.83
2023-04-16T15:05:40.008Z,111.80
2023-04-16T15:10:45.757Z,122.30
2023-04-16T15:15:48.655Z,108.18
2023-04-16T15:21:05.308Z,99.40
2023-04-16T15:26:09.385Z,100.70
2023-04-16T15:31:12.640Z,103.43
2023-04-16T15:36:15.580Z,92.22
2023-04-16T15:41:19.972Z,97.80
2023-04-16T15:46:41.937Z,81.82
2023-04-16T15:51:44.964Z,84.47
2023-04-16T15:56:49.255Z,92.55
2023-04-16T16:01:52.152Z,78.10
2023-04-16T16:06:55.614Z,85.83
2023-04-16T16:12:19.559Z,86.93
2023-04-16T16:17:22.437Z,83.18
2023-04-16T16:22:25.409Z,91.43
2023-04-16T16:27:29.620Z,89.80
2023-04-16T16:32:32.552Z,96.45
2023-04-16T16:37:57.153Z,92.93
2023-04-16T16:43:01.383Z,91.07
2023-04-16T16:48:04.594Z,92.30
2023-04-16T16:53:07.510Z,94.73
2023-04-16T16:58:11.911Z,100.67
2023-04-16T17:03:30.973Z,104.20
2023-04-16T17:08:33.908Z,106.47
2023-04-16T17:13:38.232Z,113.00
2023-04-16T17:18:41.300Z,119.68
2023-04-16T17:23:44.279Z,113.88
2023-04-16T17:29:08.569Z,121.83
2023-04-16T17:34:11.641Z,123.18
2023-04-16T17:39:14.744Z,110.20
2023-04-16T17:44:18.971Z,118.53
2023-04-16T17:49:21.822Z,135.25
2023-04-16T17:54:43.596Z,152.75
2023-04-16T17:59:47.901Z,123.97
2023-04-16T18:04:51.404Z,123.40
2023-04-16T18:09:54.708Z,129.57
2023-04-16T18:14:59.229Z,119.95
2023-04-16T18:20:19.752Z,135.17
2023-04-16T18:25:32.224Z,122.40
2023-04-16T18:30:40.474Z,125.53
2023-04-16T18:35:43.611Z,128.20
2023-04-16T18:40:47.018Z,119.90
2023-04-16T18:45:56.880Z,110.53
2023-04-16T18:50:59.819Z,128.30
2023-04-16T18:56:02.819Z,125.57
2023-04-16T19:01:11.267Z,116.95
2023-04-16T19:06:14.431Z,111.00
2023-04-16T19:11:32.340Z,111.97
2023-04-16T19:16:36.567Z,113.45
2023-04-16T19:21:40.730Z,119.60
2023-04-16T19:26:43.535Z,129.23
2023-04-16T19:31:48.889Z,132.60
2023-04-16T19:37:08.445Z,131.57
2023-04-16T19:42:11.315Z,135.00
2023-04-16T19:47:16.131Z,138.80
2023-04-16T19:52:19.127Z,150.75
2023-04-16T19:57:22.130Z,146.07
2023-04-16T20:02:45.935Z,140.90
2023-04-16T20:07:50.774Z,139.60
2023-04-16T20:12:55.389Z,127.03
2023-04-16T20:17:59.722Z,125.32
2023-04-16T20:23:04.816Z,120.95
2023-04-16T20:28:21.709Z,128.98
2023-04-16T20:33:25.973Z,138.45
2023-04-16T20:38:32.346Z,141.50
2023-04-16T20:43:38.561Z,143.63
2023-04-16T20:48:43.220Z,150.95
2023-04-16T20:53:58.435Z,158.50
2023-04-16T20:59:01.453Z,158.15
2023-04-16T21:04:06.716Z,171.18
2023-04-16T21:09:10.167Z,178.32
2023-04-16T21:14:15.487Z,171.98
2023-04-16T21:19:34.821Z,173.93
2023-04-16T21:24:37.761Z,165.47
2023-04-16T21:29:40.626Z,164.10
2023-04-16T21:34:44.832Z,174.63
2023-04-16T21:39:47.657Z,155.57
2023-04-16T21:45:10.417Z,160.43
2023-04-16T21:50:14.939Z,151.90
2023-04-16T21:55:17.994Z,158.95
2023-04-16T22:00:21.343Z,159.43
2023-04-16T22:05:25.773Z,164.15
2023-04-16T22:10:46.359Z,163.63
2023-04-16T22:15:49.250Z,170.37
2023-04-16T22:20:55.283Z,156.75
2023-04-16T22:25:58.231Z,148.60
2023-04-16T22:31:01.212Z,141.23
2023-04-16T22:36:24.019Z,132.73
2023-04-16T22:41:27.199Z,147.37
2023-04-16T22:46:30.945Z,145.48
2023-04-16T22:51:35.282Z,140.95
2023-04-16T22:56:38.944Z,138.53
2023-04-16T23:01:58.978Z,143.38
2023-04-16T23:07:03.204Z,141.60
2023-04-16T23:12:06.380Z,145.80
2023-04-16T23:17:09.251Z,142.63
2023-04-16T23:22:13.414Z,146.57
2023-04-16T23:27:34.596Z,150.70
2023-04-16T23:32:37.514Z,146.07
2023-04-16T23:37:41.970Z,140.57
2023-04-16T23:42:44.870Z,134.17
2023-04-16T23:48:06.690Z,113.40
2023-04-16T23:53:14.254Z,110.15
2023-04-16T23:58:17.209Z,106.87
